createdAt,value
2022-08-18T00:00:21.904Z,38.56
2022-08-18T00:01:11.196Z,38.56
2022-08-18T00:02:10.749Z,39.01
2022-08-18T00:04:03.307Z,38.95
2022-08-18T00:04:47.633Z,38.90
2022-08-18T00:05:13.034Z,38.90
2022-08-18T00:06:11.183Z,39.04
2022-08-18T00:07:10.704Z,38.41
2022-08-18T00:08:11.346Z,39.41
2022-08-18T00:09:10.789Z,39.33
2022-08-18T00:10:21.285Z,38.93
2022-08-18T00:11:10.593Z,38.93
2022-08-18T00:12:10.989Z,39.57
2022-08-18T00:13:10.374Z,39.18
2022-08-18T00:14:10.965Z,39.13
2022-08-18T00:15:11.277Z,38.91
2022-08-18T00:16:10.758Z,39.31
2022-08-18T00:17:11.258Z,39.13
2022-08-18T00:18:10.301Z,39.20
2022-08-18T00:19:12.920Z,39.27
2022-08-18T00:20:11.050Z,39.71
2022-08-18T00:21:10.373Z,39.93
2022-08-18T00:22:12.446Z,39.70
2022-08-18T00:23:10.374Z,39.63
2022-08-18T00:24:10.441Z,39.88
2022-08-18T00:25:10.744Z,40.21
2022-08-18T00:26:10.824Z,40.09
2022-08-18T00:27:10.766Z,40.53
2022-08-18T00:28:10.617Z,40.61
2022-08-18T00:29:10.516Z,39.59
2022-08-18T00:30:11.026Z,40.29
2022-08-18T00:31:10.261Z,40.70
2022-08-18T00:32:11.066Z,40.52
2022-08-18T00:33:10.190Z,40.72
2022-08-18T00:34:10.395Z,40.40
2022-08-18T00:35:10.287Z,40.43
2022-08-18T00:36:10.580Z,40.43
2022-08-18T00:37:10.675Z,40
2022-08-18T00:38:24.276Z,40.63
2022-08-18T00:39:10.459Z,40.38
2022-08-18T00:40:11.360Z,39.77
2022-08-18T00:41:10.995Z,30
2022-08-18T00:42:10.397Z,40.13
2022-08-18T00:43:10.569Z,40.59
2022-08-18T00:44:10.580Z,40.41
2022-08-18T00:45:11.441Z,39.47
2022-08-18T00:46:10.252Z,39.68
2022-08-18T00:47:10.335Z,39.38
2022-08-18T00:48:10.700Z,39.74
2022-08-18T00:49:10.206Z,39.52
2022-08-18T00:51:10.355Z,39.59
2022-08-18T00:52:10.597Z,40.11
2022-08-18T00:53:10.511Z,40.04
2022-08-18T00:54:10.515Z,39.43
2022-08-18T00:55:10.846Z,30
2022-08-18T00:56:11.498Z,39.93
2022-08-18T00:57:10.776Z,39.86
2022-08-18T00:58:10.903Z,39.31
2022-08-18T00:59:11.149Z,38.97
2022-08-18T01:00:11.707Z,39.27
2022-08-18T01:01:10.908Z,39.18
2022-08-18T01:02:11.181Z,39.56
2022-08-18T01:03:10.664Z,39.77
2022-08-18T01:04:10.443Z,39.79
2022-08-18T01:05:10.884Z,39.90
2022-08-18T01:06:11.523Z,40.04
2022-08-18T01:07:10.527Z,39.95
2022-08-18T01:08:10.765Z,39.70
2022-08-18T01:09:11.351Z,40.11
2022-08-18T01:10:10.481Z,40.04
2022-08-18T01:11:10.549Z,39.70
2022-08-18T01:12:49.961Z,40.22
2022-08-18T01:13:10.747Z,40.22
2022-08-18T01:14:10.695Z,40.65
2022-08-18T01:15:31.024Z,40.42
2022-08-18T01:16:10.665Z,40.42
2022-08-18T01:17:10.792Z,40.31
2022-08-18T01:18:10.843Z,40.34
2022-08-18T01:19:10.503Z,40.34
2022-08-18T01:20:10.787Z,40.47
2022-08-18T01:21:10.614Z,40.63
2022-08-18T01:22:10.970Z,40.79
2022-08-18T01:23:11.211Z,41.22
2022-08-18T01:24:10.396Z,41.58
2022-08-18T01:25:10.829Z,42.38
2022-08-18T01:26:11.071Z,42.27
2022-08-18T01:27:10.549Z,42.13
2022-08-18T01:28:10.704Z,41.59
2022-08-18T01:29:11.050Z,41.56
2022-08-18T01:30:11.283Z,41.91
2022-08-18T01:31:10.423Z,41.84
2022-08-18T01:32:10.886Z,42.13
2022-08-18T01:33:11.086Z,42.15
2022-08-18T01:34:10.184Z,42.06
2022-08-18T01:35:10.479Z,41.74
2022-08-18T01:36:11.010Z,41.86
2022-08-18T01:37:10.496Z,41.75
2022-08-18T01:38:10.833Z,41.79
2022-08-18T01:39:11.058Z,41.65
2022-08-18T01:41:32.306Z,41.23
2022-08-18T01:41:34.186Z,41.23
2022-08-18T01:42:10.684Z,41.23
2022-08-18T01:43:10.586Z,39.97
2022-08-18T01:44:10.633Z,40.45
2022-08-18T01:45:10.871Z,41.14
2022-08-18T01:46:10.906Z,41.04
2022-08-18T01:47:10.991Z,40.88
2022-08-18T01:48:10.087Z,41.06
2022-08-18T01:49:10.293Z,41.09
2022-08-18T01:50:10.245Z,41.03
2022-08-18T01:51:10.743Z,40.61
2022-08-18T01:52:10.911Z,40.59
2022-08-18T01:53:10.781Z,41.14
2022-08-18T01:54:11.054Z,41.15
2022-08-18T01:55:11.406Z,41.29
2022-08-18T01:56:10.864Z,41.24
2022-08-18T01:57:11.198Z,41.40
2022-08-18T01:58:10.341Z,41.31
2022-08-18T01:59:10.463Z,41.67
2022-08-18T02:00:15.845Z,41.45
2022-08-18T02:01:10.880Z,41.22
2022-08-18T02:02:18.437Z,41.70
2022-08-18T02:03:11.108Z,41.90
2022-08-18T02:04:37.626Z,42.02
2022-08-18T02:05:11.102Z,42.02
2022-08-18T02:06:11.509Z,41.86
2022-08-18T02:07:11.875Z,42.18
2022-08-18T02:08:11.209Z,42.81
2022-08-18T02:09:10.749Z,42.20
2022-08-18T02:10:16.540Z,43.13
2022-08-18T02:11:10.939Z,43.70
2022-08-18T02:12:10.894Z,42.61
2022-08-18T02:13:10.918Z,43.64
2022-08-18T02:14:10.801Z,43.65
2022-08-18T02:15:11.083Z,43.59
2022-08-18T02:16:10.661Z,43.73
2022-08-18T02:17:10.810Z,43.42
2022-08-18T02:18:10.717Z,42.84
2022-08-18T02:19:10.731Z,43.75
2022-08-18T02:20:10.863Z,43.36
2022-08-18T02:21:13.945Z,43.43
2022-08-18T02:22:10.794Z,43.47
2022-08-18T02:23:11.039Z,43.40
2022-08-18T02:24:10.670Z,42.97
2022-08-18T02:25:11.021Z,43.36
2022-08-18T02:26:10.168Z,42.90
2022-08-18T02:27:10.338Z,43.27
2022-08-18T02:28:10.682Z,43.02
2022-08-18T02:29:10.748Z,42.59
2022-08-18T02:30:10.887Z,42.15
2022-08-18T02:31:14.673Z,42.50
2022-08-18T02:32:10.597Z,42.33
2022-08-18T02:33:10.897Z,42.56
2022-08-18T02:34:10.828Z,42.43
2022-08-18T02:35:15.223Z,42.15
2022-08-18T02:36:10.509Z,40.81
2022-08-18T02:37:15.789Z,41.74
2022-08-18T02:38:10.759Z,41.84
2022-08-18T02:39:10.464Z,42.54
2022-08-18T02:40:11.249Z,42.72
2022-08-18T02:41:10.430Z,42.99
2022-08-18T02:42:10.492Z,43.19
2022-08-18T02:43:10.777Z,42.09
2022-08-18T02:44:10.581Z,41.15
2022-08-18T02:45:13.505Z,40.97
2022-08-18T02:46:10.533Z,40.15
2022-08-18T02:47:10.465Z,40.95
2022-08-18T02:48:10.922Z,41.70
2022-08-18T02:49:10.647Z,41.59
2022-08-18T02:50:14.523Z,42.22
2022-08-18T02:51:10.798Z,41.84
2022-08-18T02:52:10.712Z,41.15
2022-08-18T02:53:10.852Z,40.58
2022-08-18T02:54:11.214Z,38.29
2022-08-18T02:55:10.718Z,36.52
2022-08-18T02:56:41.200Z,37.61
2022-08-18T02:57:10.598Z,37.61
2022-08-18T02:58:10.448Z,37.54
2022-08-18T02:59:10.167Z,37.56
2022-08-18T03:00:12.919Z,37.56
2022-08-18T03:01:10.480Z,37.34
2022-08-18T03:02:10.706Z,38.07
2022-08-18T03:03:10.535Z,37.5
2022-08-18T03:04:10.481Z,37.11
2022-08-18T03:05:18.022Z,37.25
2022-08-18T03:06:10.135Z,37.12
2022-08-18T03:07:10.534Z,37.04
2022-08-18T03:08:10.424Z,37.56
2022-08-18T03:09:10.588Z,37.45
2022-08-18T03:10:37.714Z,37.13
2022-08-18T03:11:10.649Z,37.13
2022-08-18T03:12:10.454Z,37.31
2022-08-18T03:13:10.368Z,37.75
2022-08-18T03:14:15.106Z,38.04
2022-08-18T03:15:10.317Z,37.93
2022-08-18T03:16:10.532Z,37.88
2022-08-18T03:17:10.812Z,37.95
2022-08-18T03:18:10.757Z,37.72
2022-08-18T03:19:10.554Z,37.81
2022-08-18T03:20:12.402Z,38.29
2022-08-18T03:21:11.076Z,38.45
2022-08-18T03:22:32.296Z,38.83
2022-08-18T03:23:13.682Z,38.83
2022-08-18T03:24:18.097Z,38.93
2022-08-18T03:25:10.644Z,39.12
2022-08-18T03:26:10.494Z,38.43
2022-08-18T03:27:10.691Z,38.47
2022-08-18T03:28:11.002Z,38.27
2022-08-18T03:29:10.205Z,38.90
2022-08-18T03:30:15.025Z,39.02
2022-08-18T03:31:10.162Z,39.43
2022-08-18T03:32:10.363Z,39.50
2022-08-18T03:33:10.594Z,38.77
2022-08-18T03:34:10.937Z,38.97
2022-08-18T03:35:11.325Z,39.36
2022-08-18T03:36:10.669Z,40.09
2022-08-18T03:37:10.625Z,40.08
2022-08-18T03:38:10.729Z,40.04
2022-08-18T03:39:10.765Z,38.79
2022-08-18T03:40:11.272Z,38.47
2022-08-18T03:41:10.478Z,38.82
2022-08-18T03:42:10.447Z,38.54
2022-08-18T03:43:55.019Z,38.63
2022-08-18T03:44:09.860Z,38.63
2022-08-18T03:45:21.155Z,39.81
2022-08-18T03:46:09.989Z,39.81
2022-08-18T03:47:10.002Z,40.20
2022-08-18T03:48:09.930Z,40.60
2022-08-18T03:49:10.814Z,39.99
2022-08-18T03:50:17.270Z,39.88
2022-08-18T03:51:10.201Z,39.36
2022-08-18T03:52:10.191Z,30
2022-08-18T03:53:10.350Z,38.93
2022-08-18T03:54:10.341Z,37.93
2022-08-18T03:55:10.501Z,38.74
2022-08-18T03:56:10.807Z,38.38
2022-08-18T03:57:10.892Z,38.33
2022-08-18T03:58:11.144Z,38.43
2022-08-18T03:59:10.162Z,38.06
2022-08-18T04:00:11.574Z,38.68
2022-08-18T04:01:10.894Z,38.80
2022-08-18T04:02:11.085Z,38.97
2022-08-18T04:03:10.465Z,38.93
2022-08-18T04:04:11.001Z,38.88
2022-08-18T04:05:10.763Z,38.70
2022-08-18T04:06:15.870Z,38.47
2022-08-18T04:07:10.561Z,38.63
2022-08-18T04:08:10.974Z,38.47
2022-08-18T04:09:11.080Z,38
2022-08-18T04:10:22.722Z,37.93
2022-08-18T04:11:11.354Z,37.93
2022-08-18T04:12:10.726Z,37.99
2022-08-18T04:13:10.777Z,38.02
2022-08-18T04:14:11.094Z,38.04
2022-08-18T04:15:10.751Z,38.09
2022-08-18T04:16:10.823Z,37.81
2022-08-18T04:17:10.688Z,37.52
2022-08-18T04:18:12.111Z,37.63
2022-08-18T04:19:10.155Z,37.73
2022-08-18T04:20:10.496Z,37.85
2022-08-18T04:21:10.778Z,37.45
2022-08-18T04:22:10.863Z,37.49
2022-08-18T04:23:10.668Z,37.18
2022-08-18T04:24:10.975Z,37.74
2022-08-18T04:25:11.215Z,37.47
2022-08-18T04:26:10.268Z,38.04
2022-08-18T04:27:10.361Z,37.79
2022-08-18T04:28:10.393Z,37.84
2022-08-18T04:29:10.596Z,38.02
2022-08-18T04:30:11.198Z,37.77
2022-08-18T04:31:13.898Z,38.27
2022-08-18T04:32:11.156Z,38.00
2022-08-18T04:33:10.520Z,37.99
2022-08-18T04:34:10.796Z,38.38
2022-08-18T04:35:17.657Z,38.33
2022-08-18T04:36:11.167Z,38.56
2022-08-18T04:37:10.322Z,38.59
2022-08-18T04:38:10.366Z,38.74
2022-08-18T04:39:10.596Z,30
2022-08-18T04:40:11.365Z,38.52
2022-08-18T04:41:10.066Z,38.81
2022-08-18T04:42:10.240Z,38.88
2022-08-18T04:43:10.344Z,38.27
2022-08-18T04:44:10.656Z,38.00
2022-08-18T04:45:10.865Z,38.61
2022-08-18T04:46:10.996Z,38.99
2022-08-18T04:47:10.196Z,38.97
2022-08-18T04:48:10.603Z,39.49
2022-08-18T04:49:10.571Z,39.88
2022-08-18T04:50:10.629Z,30
2022-08-18T04:51:10.548Z,40.18
2022-08-18T04:52:44.408Z,40.22
2022-08-18T04:53:10.599Z,40.22
2022-08-18T04:54:10.634Z,40.22
2022-08-18T04:55:10.898Z,40.24
2022-08-18T04:56:10.991Z,40.06
2022-08-18T04:57:10.106Z,40.58
2022-08-18T04:58:10.243Z,40.40
2022-08-18T04:59:10.535Z,40.41
2022-08-18T05:00:11.983Z,40.29
2022-08-18T05:01:11.027Z,39.54
2022-08-18T05:02:16.273Z,40.66
2022-08-18T05:03:10.397Z,40.54
2022-08-18T05:04:10.330Z,40.47
2022-08-18T05:05:10.756Z,41.22
2022-08-18T05:06:10.810Z,41.31
2022-08-18T05:07:11.146Z,40.09
2022-08-18T05:08:10.175Z,39.86
2022-08-18T05:09:10.336Z,39.88
2022-08-18T05:10:10.755Z,39.24
2022-08-18T05:11:11.002Z,39.59
2022-08-18T05:12:10.562Z,40.08
2022-08-18T05:13:10.651Z,39.86
2022-08-18T05:14:10.844Z,40.40
2022-08-18T05:16:07.050Z,40.34
2022-08-18T05:17:10.945Z,41.04
2022-08-18T05:18:16.771Z,41.29
2022-08-18T05:19:13.001Z,41.58
2022-08-18T05:20:10.697Z,41.79
2022-08-18T05:21:14.873Z,41.47
2022-08-18T05:22:12.434Z,41.27
2022-08-18T05:23:10.707Z,39.20
2022-08-18T05:24:10.961Z,39.59
2022-08-18T05:25:10.928Z,39.82
2022-08-18T05:26:10.925Z,39.33
2022-08-18T05:27:11.185Z,39.45
2022-08-18T05:28:10.114Z,39.69
2022-08-18T05:29:23.173Z,39.15
2022-08-18T05:30:11.979Z,39.15
2022-08-18T05:31:17.440Z,39.11
2022-08-18T05:32:10.639Z,39.74
2022-08-18T05:33:11.080Z,39.85
2022-08-18T05:34:10.159Z,39.47
2022-08-18T05:35:11.814Z,39.84
2022-08-18T05:36:10.827Z,39.86
2022-08-18T05:37:11.793Z,39.56
2022-08-18T05:38:10.957Z,40.04
2022-08-18T05:39:11.897Z,40.33
2022-08-18T05:40:15.200Z,40.41
2022-08-18T05:41:13.996Z,40.48
2022-08-18T05:42:11.366Z,40.46
2022-08-18T05:43:10.465Z,40.43
2022-08-18T05:44:10.517Z,40.41
2022-08-18T05:45:11.021Z,40.63
2022-08-18T05:46:10.463Z,40.88
2022-08-18T05:47:10.796Z,40.50
2022-08-18T05:48:10.823Z,40.44
2022-08-18T05:49:10.899Z,40.32
2022-08-18T05:50:11.243Z,40.27
2022-08-18T05:51:10.277Z,40.02
2022-08-18T05:52:10.468Z,40.68
2022-08-18T05:53:17.814Z,40.83
2022-08-18T05:54:10.935Z,38.86
2022-08-18T05:55:11.202Z,38.72
2022-08-18T05:56:10.523Z,38.43
2022-08-18T05:57:11.092Z,38.43
2022-08-18T05:58:10.590Z,38.75
2022-08-18T05:59:10.645Z,38.77
2022-08-18T06:00:12.612Z,39.31
2022-08-18T06:01:11.213Z,39.40
2022-08-18T06:02:10.752Z,39.45
2022-08-18T06:03:10.771Z,39.31
2022-08-18T06:04:11.050Z,39.25
2022-08-18T06:05:10.769Z,39.61
2022-08-18T06:06:11.265Z,40.62
2022-08-18T06:07:10.745Z,40.33
2022-08-18T06:08:10.966Z,40.41
2022-08-18T06:09:11.162Z,39.95
2022-08-18T06:10:10.568Z,40.42
2022-08-18T06:11:26.062Z,40.33
2022-08-18T06:12:10.379Z,40.33
2022-08-18T06:13:10.552Z,40.40
2022-08-18T06:14:10.952Z,40.18
2022-08-18T06:15:11.633Z,40.36
2022-08-18T06:16:10.700Z,40.36
2022-08-18T06:17:10.667Z,40.63
2022-08-18T06:18:10.813Z,39.86
2022-08-18T06:19:10.858Z,40.25
2022-08-18T06:20:12.072Z,40.24
2022-08-18T06:21:10.384Z,40.41
2022-08-18T06:22:10.606Z,40.40
2022-08-18T06:23:10.673Z,40.49
2022-08-18T06:24:10.655Z,40.13
2022-08-18T06:25:10.780Z,40.54
2022-08-18T06:26:10.705Z,40.36
2022-08-18T06:27:10.954Z,39.06
2022-08-18T06:28:11.198Z,40.09
2022-08-18T06:29:10.555Z,40.13
2022-08-18T06:30:11.422Z,40.36
2022-08-18T06:31:10.458Z,40.34
2022-08-18T06:32:10.713Z,39.11
2022-08-18T06:33:10.846Z,39.79
2022-08-18T06:34:11.008Z,40.36
2022-08-18T06:35:10.398Z,40.20
2022-08-18T06:36:18.776Z,40.06
2022-08-18T06:37:10.586Z,39.09
2022-08-18T06:38:10.918Z,39.09
2022-08-18T06:39:11.382Z,40.04
2022-08-18T06:40:10.863Z,39.95
2022-08-18T06:41:40.720Z,40.42
2022-08-18T06:42:10.750Z,39
2022-08-18T06:43:11.160Z,38.61
2022-08-18T06:44:10.461Z,39.40
2022-08-18T06:45:11.345Z,39.84
2022-08-18T06:46:10.829Z,40.11
2022-08-18T06:47:10.970Z,40.06
2022-08-18T06:49:10.850Z,39.47
2022-08-18T06:50:11.262Z,39.61
2022-08-18T06:51:10.584Z,39.77
2022-08-18T06:52:10.669Z,39.50
2022-08-18T06:53:30.477Z,39.95
2022-08-18T06:54:10.783Z,39.95
2022-08-18T06:55:11.223Z,39.86
2022-08-18T06:56:30.041Z,40.18
2022-08-18T06:57:10.461Z,40.18
2022-08-18T06:58:10.516Z,39.97
2022-08-18T06:59:10.387Z,39.93
2022-08-18T07:00:11.845Z,40.18
2022-08-18T07:01:11.287Z,40.46
2022-08-18T07:02:11.195Z,40.38
2022-08-18T07:03:10.627Z,40.65
2022-08-18T07:04:11.168Z,40.59
2022-08-18T07:05:10.513Z,40.59
2022-08-18T07:06:10.615Z,40.52
2022-08-18T07:07:10.868Z,40.41
2022-08-18T07:08:11.268Z,40.22
2022-08-18T07:09:10.438Z,40.55
2022-08-18T07:10:10.831Z,40.15
2022-08-18T07:11:10.801Z,39.18
2022-08-18T07:12:11.091Z,39.45
2022-08-18T07:13:10.505Z,39.08
2022-08-18T07:15:11.179Z,38.95
2022-08-18T07:17:10.774Z,38.66
2022-08-18T07:18:10.980Z,38.88
2022-08-18T07:19:11.093Z,38.29
2022-08-18T07:20:29.732Z,38.31
2022-08-18T07:21:10.974Z,38.31
2022-08-18T07:22:11.185Z,38.44
2022-08-18T07:23:11.749Z,37.68
2022-08-18T07:24:27.498Z,38.40
2022-08-18T07:25:10.859Z,38.40
2022-08-18T07:26:11.173Z,37.50
2022-08-18T07:27:10.802Z,37.56
2022-08-18T07:28:11.158Z,37.79
2022-08-18T07:29:10.524Z,37.56
2022-08-18T07:30:15.477Z,37.96
2022-08-18T07:31:20.875Z,38.02
2022-08-18T07:32:20.977Z,38.02
2022-08-18T07:33:10.885Z,37.63
2022-08-18T07:34:10.943Z,37.86
2022-08-18T07:35:11.044Z,37.89
2022-08-18T07:36:10.580Z,37.72
2022-08-18T07:37:10.697Z,37.90
2022-08-18T07:38:43.859Z,37.94
2022-08-18T07:39:10.591Z,37.94
2022-08-18T07:40:11.462Z,37.41
2022-08-18T07:41:10.770Z,37.13
2022-08-18T07:42:10.835Z,37.33
2022-08-18T07:43:11.175Z,37.65
2022-08-18T07:44:17.157Z,37.58
2022-08-18T07:45:10.907Z,37.54
2022-08-18T07:46:11.159Z,37.33
2022-08-18T07:47:10.680Z,37.13
2022-08-18T07:48:40.739Z,37.13
2022-08-18T07:49:12.635Z,37.13
2022-08-18T07:50:57.983Z,36.86
2022-08-18T07:51:12.562Z,36.86
2022-08-18T07:52:48.131Z,37.47
2022-08-18T07:53:10.824Z,37.47
2022-08-18T07:54:20.270Z,37.74
2022-08-18T07:55:13.464Z,37.47
2022-08-18T07:56:10.781Z,37.72
2022-08-18T07:57:12.588Z,37.54
2022-08-18T07:58:10.685Z,37.59
2022-08-18T07:59:10.754Z,37.47
2022-08-18T08:00:41.510Z,37.13
2022-08-18T08:01:10.443Z,37.13
2022-08-18T08:02:10.944Z,37.47
2022-08-18T08:03:10.407Z,37.56
2022-08-18T08:04:26.132Z,37.84
2022-08-18T08:05:10.830Z,37.63
2022-08-18T08:06:11.366Z,37.38
2022-08-18T08:07:28.101Z,37.79
2022-08-18T08:08:11.264Z,37.79
2022-08-18T08:09:10.782Z,37.94
2022-08-18T08:10:11.053Z,37.61
2022-08-18T08:11:10.419Z,37.24
2022-08-18T08:12:10.772Z,37.60
2022-08-18T08:13:13.421Z,37.43
2022-08-18T08:14:10.791Z,37.81
2022-08-18T08:15:11.708Z,30
2022-08-18T08:16:10.897Z,37.68
2022-08-18T08:17:12.080Z,38.29
2022-08-18T08:18:10.552Z,38.31
2022-08-18T08:19:16.155Z,38.04
2022-08-18T08:20:10.723Z,38.04
2022-08-18T08:21:10.993Z,38.09
2022-08-18T08:22:10.579Z,38.49
2022-08-18T08:23:11.116Z,38.27
2022-08-18T08:24:10.793Z,38.33
2022-08-18T08:25:47.171Z,38.86
2022-08-18T08:26:12.264Z,38.86
2022-08-18T08:27:10.709Z,39.00
2022-08-18T08:28:10.851Z,38.95
2022-08-18T08:29:11.700Z,38.84
2022-08-18T08:30:11.750Z,39.02
2022-08-18T08:31:39.828Z,39.09
2022-08-18T08:32:11.234Z,39.09
2022-08-18T08:33:10.602Z,39.47
2022-08-18T08:34:10.687Z,39.54
2022-08-18T08:35:49.199Z,38.93
2022-08-18T08:36:10.766Z,39.09
2022-08-18T08:37:10.814Z,39.09
2022-08-18T08:38:44.611Z,39.40
2022-08-18T08:39:10.601Z,39.40
2022-08-18T08:40:11.716Z,40.11
2022-08-18T08:41:11.007Z,39.81
2022-08-18T08:42:40.229Z,39.38
2022-08-18T08:43:11.086Z,39.38
2022-08-18T08:44:10.742Z,39.77
2022-08-18T08:45:11.667Z,39.45
2022-08-18T08:46:10.555Z,39.54
2022-08-18T08:47:10.744Z,39.59
2022-08-18T08:48:14.579Z,39.81
2022-08-18T08:49:10.801Z,38.86
2022-08-18T08:50:11.006Z,39.58
2022-08-18T08:51:11.203Z,39.76
2022-08-18T08:52:10.736Z,40.02
2022-08-18T08:53:10.945Z,39.59
2022-08-18T08:54:11.093Z,40.06
2022-08-18T08:55:10.268Z,40.54
2022-08-18T08:56:10.598Z,40.62
2022-08-18T08:57:13.376Z,40.58
2022-08-18T08:58:10.708Z,39.50
2022-08-18T08:59:10.912Z,39.68
2022-08-18T09:00:12.759Z,39.59
2022-08-18T09:01:11.283Z,39.40
2022-08-18T09:02:15.948Z,39.36
2022-08-18T09:03:11.163Z,39.52
2022-08-18T09:04:10.742Z,39.72
2022-08-18T09:05:13.216Z,39.62
2022-08-18T09:06:10.713Z,39.29
2022-08-18T09:07:11.041Z,38.83
2022-08-18T09:08:10.454Z,39.06
2022-08-18T09:09:10.777Z,39.09
2022-08-18T09:10:10.971Z,38.54
2022-08-18T09:11:11.128Z,38.27
2022-08-18T09:12:10.377Z,38.18
2022-08-18T09:13:10.821Z,38.27
2022-08-18T09:14:10.901Z,38.36
2022-08-18T09:15:11.531Z,38.63
2022-08-18T09:16:17.679Z,37.93
2022-08-18T09:17:11.033Z,38.52
2022-08-18T09:18:10.722Z,38.09
2022-08-18T09:19:10.803Z,38.80
2022-08-18T09:20:11.266Z,38.81
2022-08-18T09:21:10.624Z,38.90
2022-08-18T09:22:10.800Z,38.75
2022-08-18T09:23:11.123Z,38.68
2022-08-18T09:24:10.459Z,38.77
2022-08-18T09:25:10.921Z,38.29
2022-08-18T09:26:11.379Z,38.52
2022-08-18T09:27:24.919Z,37.93
2022-08-18T09:28:14.875Z,37.93
2022-08-18T09:29:19.070Z,38.29
2022-08-18T09:30:12.054Z,38.31
2022-08-18T09:31:12.579Z,38.29
2022-08-18T09:32:15.577Z,38.25
2022-08-18T09:34:14.568Z,37.68
2022-08-18T09:35:10.881Z,38.33
2022-08-18T09:36:15.238Z,38.39
2022-08-18T09:37:10.994Z,38.43
2022-08-18T09:38:11.932Z,38.18
2022-08-18T09:39:12.164Z,37.66
2022-08-18T09:40:16.057Z,37.95
2022-08-18T09:41:10.639Z,38.29
2022-08-18T09:42:11.139Z,38.22
2022-08-18T09:43:12.868Z,38.28
2022-08-18T09:44:21.569Z,38.20
2022-08-18T09:45:11.168Z,30
2022-08-18T09:46:12.397Z,37.97
2022-08-18T09:47:11.085Z,38.04
2022-08-18T09:48:20.702Z,37.90
2022-08-18T09:49:11.912Z,38.32
2022-08-18T09:51:12.349Z,37.74
2022-08-18T09:52:12.830Z,38.24
2022-08-18T09:53:10.814Z,38.20
2022-08-18T09:54:10.886Z,38.15
2022-08-18T09:55:11.053Z,37.91
2022-08-18T09:56:10.459Z,38.16
2022-08-18T09:57:10.955Z,38.31
2022-08-18T09:58:11.142Z,38.22
2022-08-18T09:59:14.608Z,38.50
2022-08-18T10:00:13.089Z,38.31
2022-08-18T10:01:10.434Z,38.61
2022-08-18T10:02:28.356Z,38.49
2022-08-18T10:03:12.049Z,38.49
2022-08-18T10:04:15.462Z,38.43
2022-08-18T10:05:11.463Z,38.24
2022-08-18T10:07:10.656Z,38.81
2022-08-18T10:08:11.065Z,38.91
2022-08-18T10:11:08.971Z,38.97
2022-08-18T10:11:13.834Z,38.97
2022-08-18T10:13:10.586Z,38.74
2022-08-18T10:14:13.043Z,38.68
2022-08-18T10:15:11.244Z,39.08
2022-08-18T10:16:14.894Z,38.33
2022-08-18T10:17:27.959Z,38.54
2022-08-18T10:18:13.008Z,38.54
2022-08-18T10:19:11.023Z,39.13
2022-08-18T10:20:25.854Z,38.54
2022-08-18T10:21:12.164Z,38.97
2022-08-18T10:22:10.944Z,39.13
2022-08-18T10:23:11.236Z,39.15
2022-08-18T10:25:26.916Z,39.04
2022-08-18T10:27:10.531Z,39.23
2022-08-18T10:28:12.696Z,38.86
2022-08-18T10:29:10.777Z,38.31
2022-08-18T10:30:15.838Z,39.02
2022-08-18T10:31:14.058Z,39.24
2022-08-18T10:32:17.890Z,39.20
2022-08-18T10:33:21.982Z,39.55
2022-08-18T10:35:11.178Z,39.06
2022-08-18T10:36:14.648Z,39.43
2022-08-18T10:37:12.365Z,39.56
2022-08-18T10:38:10.625Z,39.71
2022-08-18T10:39:11.032Z,39.18
2022-08-18T10:40:13.277Z,39.47
2022-08-18T10:41:19.117Z,40.29
2022-08-18T10:43:55.090Z,40.13
2022-08-18T10:44:31.290Z,40.36
2022-08-18T10:45:13.114Z,40.36
2022-08-18T10:46:32.878Z,40.59
2022-08-18T10:47:16.047Z,40.59
2022-08-18T10:49:12.397Z,39.65
2022-08-18T10:50:11.102Z,40.09
2022-08-18T10:51:10.675Z,40.22
2022-08-18T10:52:10.913Z,40.16
2022-08-18T10:54:12.184Z,39.81
2022-08-18T10:56:11.040Z,40.30
2022-08-18T10:57:14.387Z,40.37
2022-08-18T10:58:10.875Z,40.06
2022-08-18T10:59:19.617Z,39.90
2022-08-18T11:00:13.806Z,39.90
2022-08-18T11:01:10.618Z,40.36
2022-08-18T11:02:11.781Z,40.11
2022-08-18T11:03:55.873Z,39.99
2022-08-18T11:04:34.074Z,39.93
2022-08-18T11:05:12.877Z,39.93
2022-08-18T11:07:12.130Z,39.90
2022-08-18T11:09:12.902Z,40.10
2022-08-18T11:10:50.533Z,39.83
2022-08-18T11:11:52.647Z,40.02
2022-08-18T11:12:12.473Z,40.02
2022-08-18T11:13:13.485Z,39.56
2022-08-18T11:14:12.715Z,39.27
2022-08-18T11:15:27.377Z,39.94
2022-08-18T11:17:11.143Z,39.81
2022-08-18T11:18:14.529Z,40.08
2022-08-18T11:19:11.255Z,39.86
2022-08-18T11:20:10.973Z,39.88
2022-08-18T11:21:17.202Z,40.05
2022-08-18T11:23:11.613Z,39.77
2022-08-18T11:24:13.924Z,39.27
2022-08-18T11:25:15.172Z,39.98
2022-08-18T11:26:12.854Z,39.27
2022-08-18T11:27:19.240Z,39.84
2022-08-18T11:28:11.552Z,39.84
2022-08-18T11:29:10.886Z,39.75
2022-08-18T11:30:15.673Z,39.38
2022-08-18T11:31:11.635Z,40.00
2022-08-18T11:32:15.398Z,39.49
2022-08-18T11:33:10.452Z,39.91
2022-08-18T11:34:12.761Z,39.36
2022-08-18T11:35:11.274Z,30
2022-08-18T11:36:11.199Z,39.43
2022-08-18T11:37:13.049Z,39.36
2022-08-18T11:38:20.673Z,39.70
2022-08-18T11:39:11.567Z,40.23
2022-08-18T11:40:22.547Z,40.11
2022-08-18T11:41:15.188Z,39.90
2022-08-18T11:43:11.238Z,39.65
2022-08-18T11:44:11.467Z,39.86
2022-08-18T11:45:11.654Z,40.42
2022-08-18T11:46:16.436Z,39.97
2022-08-18T11:47:12.761Z,39.63
2022-08-18T11:48:37.849Z,40.33
2022-08-18T11:49:13.101Z,40.33
2022-08-18T11:50:10.733Z,40.31
2022-08-18T11:51:13.621Z,39.93
2022-08-18T11:52:10.831Z,39.65
2022-08-18T11:53:11.395Z,39.93
2022-08-18T11:54:10.663Z,39.95
2022-08-18T11:57:13.874Z,39.90
2022-08-18T11:58:16.317Z,40.28
2022-08-18T11:59:11.658Z,40.04
2022-08-18T12:00:27.765Z,39.66
2022-08-18T12:01:11.759Z,39.66
2022-08-18T12:02:11.021Z,39.41
2022-08-18T12:03:10.647Z,39.52
2022-08-18T12:04:29.492Z,39.09
2022-08-18T12:07:11.434Z,39.29
2022-08-18T12:09:10.909Z,39.57
2022-08-18T12:11:30.872Z,39.41
2022-08-18T12:12:11.144Z,39.41
2022-08-18T12:13:12.996Z,39.48
2022-08-18T12:14:37.762Z,39.11
2022-08-18T12:15:26.098Z,39.02
2022-08-18T12:16:10.981Z,39.02
2022-08-18T12:17:10.450Z,38.74
2022-08-18T12:18:10.585Z,39.27
2022-08-18T12:19:15.647Z,38.95
2022-08-18T12:20:15.388Z,38.59
2022-08-18T12:21:10.620Z,39.33
2022-08-18T12:22:34.515Z,39.31
2022-08-18T12:24:39.518Z,39.38
2022-08-18T12:25:15.881Z,39.38
2022-08-18T12:26:39.083Z,39.20
2022-08-18T12:27:25.308Z,39.25
2022-08-18T12:28:14.866Z,39.25
2022-08-18T12:29:14.450Z,39.65
2022-08-18T12:31:20.634Z,39.93
2022-08-18T12:33:16.597Z,39.13
2022-08-18T12:34:17.926Z,39.90
2022-08-18T12:35:13.266Z,40.06
2022-08-18T12:36:10.667Z,40.38
2022-08-18T12:38:00.291Z,40.47
2022-08-18T12:38:17.880Z,40.47
2022-08-18T12:39:13.150Z,40.08
2022-08-18T12:40:12.393Z,40.41
2022-08-18T12:41:11.371Z,40.44
2022-08-18T12:42:13.734Z,40.54
2022-08-18T12:43:11.099Z,39.90
2022-08-18T12:44:18.339Z,39.77
2022-08-18T12:45:12.323Z,40.04
2022-08-18T12:46:15.261Z,40.21
2022-08-18T12:47:11.121Z,40.08
2022-08-18T12:48:10.763Z,39.22
2022-08-18T12:49:12.152Z,39.47
2022-08-18T12:50:11.428Z,39.65
2022-08-18T12:51:14.233Z,39.43
2022-08-18T12:52:15.641Z,39.41
2022-08-18T12:53:10.846Z,39.34
2022-08-18T12:54:14.004Z,39.21
2022-08-18T12:55:24.965Z,39.39
2022-08-18T12:56:14.077Z,39.39
2022-08-18T12:57:14.325Z,39.25
2022-08-18T12:58:10.529Z,39.43
2022-08-18T12:59:11.301Z,39.63
2022-08-18T13:00:15.356Z,39.52
2022-08-18T13:01:11.223Z,39.59
2022-08-18T13:02:12.635Z,39.92
2022-08-18T13:03:11.896Z,39.98
2022-08-18T13:04:18.579Z,39.84
2022-08-18T13:05:08.255Z,40.20
2022-08-18T13:05:08.476Z,40.20
2022-08-18T13:05:08.492Z,40.20
2022-08-18T13:05:08.544Z,40.20
2022-08-18T13:05:08.586Z,40.20
2022-08-18T13:05:08.626Z,40.20
2022-08-18T13:06:11.233Z,40.32
2022-08-18T13:07:10.684Z,40.24
2022-08-18T13:08:30.412Z,40.56
2022-08-18T13:09:35.627Z,41.03
2022-08-18T13:10:58.126Z,40.99
2022-08-18T13:11:23.714Z,40.99
2022-08-18T13:12:18.387Z,40.86
2022-08-18T13:13:12.588Z,40.45
2022-08-18T13:14:12.777Z,40.93
2022-08-18T13:15:14.204Z,40.84
2022-08-18T13:16:10.835Z,40.16
2022-08-18T13:17:34.308Z,40.00
2022-08-18T13:18:17.720Z,40.00
2022-08-18T13:19:14.299Z,38.65